Time;durP1;ratioP1;P1;durP2;ratioP2;P2;SDS_P1;SDS_P2;PMS_P1;PMS_P2;Temp;Humidity;BMP_temperature;BMP_pressure;BME280_temperature;BME280_humidity;BME280_pressure;Samples;Min_cycle;Max_cycle;Signal;HPM_P1;HPM_P2
2020/12/30 00:02:11;;;;;;;10.00;7.30;;;5.40;90.50;;;;;;5099835;28;20444;-81
2020/12/30 00:04:38;;;;;;;11.30;6.80;;;5.40;90.50;;;;;;5099419;28;21012;-80
2020/12/30 00:07:04;;;;;;;7.73;5.77;;;5.40;90.60;;;;;;5099456;28;20463;-80
2020/12/30 00:09:31;;;;;;;9.37;6.43;;;5.40;90.70;;;;;;5099553;28;20455;-81
2020/12/30 00:11:57;;;;;;;14.80;7.13;;;5.40;90.70;;;;;;5099458;28;20503;-81
2020/12/30 00:14:23;;;;;;;9.20;6.37;;;5.50;90.70;;;;;;5099282;28;20933;-81
2020/12/30 00:16:49;;;;;;;7.03;6.17;;;5.50;90.70;;;;;;5099403;28;20467;-81
2020/12/30 00:19:15;;;;;;;9.67;6.47;;;5.50;90.70;;;;;;5099510;28;20436;-81
2020/12/30 00:21:42;;;;;;;10.93;6.80;;;5.40;90.50;;;;;;5099997;28;20447;-81
2020/12/30 00:24:09;;;;;;;6.60;5.90;;;5.40;90.50;;;;;;5098759;28;21048;-81
2020/12/30 00:26:35;;;;;;;7.27;6.53;;;5.40;90.50;;;;;;5099354;28;20459;-82
2020/12/30 00:29:01;;;;;;;9.40;6.37;;;5.40;90.50;;;;;;5098695;28;20448;-81
2020/12/30 00:31:30;;;;;;;10.20;6.30;;;5.40;90.50;;;;;;5099596;28;20448;-80
2020/12/30 00:33:56;;;;;;;11.53;6.77;;;5.40;90.50;;;;;;5098953;28;20465;-80
2020/12/30 00:36:22;;;;;;;9.90;6.30;;;5.40;90.60;;;;;;5098481;28;20551;-80
2020/12/30 00:38:49;;;;;;;10.63;6.53;;;5.40;90.60;;;;;;5098513;28;20447;-81
2020/12/30 00:41:16;;;;;;;9.00;6.40;;;5.40;90.70;;;;;;5098491;28;20938;-80
2020/12/30 00:43:42;;;;;;;8.13;5.80;;;5.40;90.80;;;;;;5098252;28;20447;-80
2020/12/30 00:46:15;;;;;;;8.47;5.90;;;5.40;90.90;;;;;;5097482;28;20491;-81
2020/12/30 00:48:41;;;;;;;13.10;7.40;;;5.40;90.90;;;;;;5097094;28;20883;-81
2020/12/30 00:51:12;;;;;;;13.30;6.40;;;5.40;90.90;;;;;;5098380;28;20448;-80
2020/12/30 00:53:38;;;;;;;15.70;6.83;;;5.40;90.90;;;;;;5097876;28;20431;-82
2020/12/30 00:56:08;;;;;;;7.60;6.40;;;5.50;91.00;;;;;;5102907;28;20925;-81
2020/12/30 00:58:35;;;;;;;9.63;7.20;;;5.50;91.00;;;;;;5100540;28;20452;-81
2020/12/30 01:01:01;;;;;;;7.90;6.67;;;5.50;91.00;;;;;;5101115;28;20457;-80
2020/12/30 01:03:27;;;;;;;7.73;6.27;;;5.50;91.00;;;;;;5100868;28;20456;-81
2020/12/30 01:05:53;;;;;;;8.77;7.90;;;5.50;91.10;;;;;;5100199;28;20464;-81
2020/12/30 01:08:19;;;;;;;8.17;7.20;;;5.50;91.10;;;;;;5100432;28;20486;-81
2020/12/30 01:10:46;;;;;;;8.10;6.33;;;5.50;91.10;;;;;;5100861;28;20439;-81
2020/12/30 01:13:13;;;;;;;11.70;7.97;;;5.50;91.20;;;;;;5099796;28;20451;-81
2020/12/30 01:15:39;;;;;;;9.57;7.50;;;5.50;91.20;;;;;;5100299;28;20440;-81
2020/12/30 01:18:05;;;;;;;14.93;7.50;;;5.60;91.20;;;;;;5100867;28;20468;-81
2020/12/30 01:20:32;;;;;;;14.37;8.30;;;5.50;91.10;;;;;;5101072;28;20803;-81
2020/12/30 01:22:58;;;;;;;12.33;7.70;;;5.60;91.20;;;;;;5102156;28;20805;-81
2020/12/30 01:25:24;;;;;;;10.70;7.70;;;5.60;91.20;;;;;;5100250;28;21014;-82
2020/12/30 01:27:50;;;;;;;11.20;7.80;;;5.60;91.20;;;;;;5099819;28;20486;-80
2020/12/30 01:30:17;;;;;;;15.70;8.33;;;5.60;91.10;;;;;;5104551;28;20452;-81
2020/12/30 01:32:44;;;;;;;14.33;9.13;;;5.60;91.10;;;;;;5106045;28;20500;-82
2020/12/30 01:35:10;;;;;;;13.00;8.17;;;5.60;91.10;;;;;;5103417;28;20443;-81
2020/12/30 01:37:37;;;;;;;19.93;8.50;;;5.60;91.10;;;;;;5102498;28;20459;-81
2020/12/30 01:40:03;;;;;;;13.83;9.53;;;5.50;91.10;;;;;;5102027;28;20488;-81
2020/12/30 01:42:40;;;;;;;17.97;9.20;;;5.50;91.10;;;;;;5102335;28;20447;-81
2020/12/30 01:45:06;;;;;;;11.63;7.60;;;5.50;91.10;;;;;;5101899;28;20467;-81
2020/12/30 01:47:33;;;;;;;14.87;8.20;;;5.50;91.00;;;;;;5101906;28;20491;-81
2020/12/30 01:50:00;;;;;;;12.13;8.57;;;5.50;91.10;;;;;;5101008;28;20452;-81
2020/12/30 01:52:26;;;;;;;15.50;9.07;;;5.40;91.00;;;;;;5100945;28;20451;-81
2020/12/30 01:54:52;;;;;;;22.80;10.13;;;5.40;91.10;;;;;;5100414;28;20968;-81
2020/12/30 01:57:20;;;;;;;15.07;9.33;;;5.40;91.20;;;;;;5100403;28;20478;-81
2020/12/30 01:59:48;;;;;;;12.37;9.73;;;5.40;91.20;;;;;;5100350;28;20444;-81
2020/12/30 02:02:15;;;;;;;14.27;9.50;;;5.40;91.30;;;;;;5101098;28;20448;-81
2020/12/30 02:04:48;;;;;;;16.30;10.27;;;5.40;91.30;;;;;;5100758;28;20505;-82
2020/12/30 02:07:15;;;;;;;12.87;9.17;;;5.40;91.30;;;;;;5100030;28;20467;-82
2020/12/30 02:09:41;;;;;;;13.80;10.83;;;5.40;91.30;;;;;;5100984;28;20802;-81
2020/12/30 02:12:08;;;;;;;14.80;10.87;;;5.40;91.50;;;;;;5099466;28;20448;-81
2020/12/30 02:14:34;;;;;;;13.20;9.77;;;5.40;91.60;;;;;;5100566;28;20509;-81
2020/12/30 02:17:00;;;;;;;11.57;10.43;;;5.30;91.50;;;;;;5100131;28;20476;-82
2020/12/30 02:19:26;;;;;;;13.80;9.83;;;5.30;91.50;;;;;;5099240;28;20496;-81
2020/12/30 02:21:59;;;;;;;18.80;10.33;;;5.30;91.50;;;;;;5099523;28;20454;-81
2020/12/30 02:24:27;;;;;;;12.97;9.80;;;5.30;91.50;;;;;;5100543;28;20454;-82
2020/12/30 02:26:53;;;;;;;18.90;10.30;;;5.30;91.50;;;;;;5099822;28;20988;-81
2020/12/30 02:29:19;;;;;;;11.27;9.57;;;5.30;91.50;;;;;;5099711;28;20470;-81
2020/12/30 02:31:45;;;;;;;12.80;10.87;;;5.30;91.50;;;;;;5099990;28;20439;-81
2020/12/30 02:34:12;;;;;;;14.33;10.17;;;5.20;91.50;;;;;;5099816;28;20478;-81
2020/12/30 02:36:38;;;;;;;14.60;10.27;;;5.20;91.50;;;;;;5102415;28;20468;-80
2020/12/30 02:39:04;;;;;;;15.23;10.63;;;5.20;91.60;;;;;;5105348;28;20456;-81
2020/12/30 02:41:32;;;;;;;15.83;11.27;;;5.20;91.60;;;;;;5105103;28;20501;-80
2020/12/30 02:44:00;;;;;;;14.97;11.30;;;5.20;91.70;;;;;;5104395;28;20477;-80
2020/12/30 02:46:27;;;;;;;13.40;10.47;;;5.20;91.80;;;;;;5104517;28;20483;-81
2020/12/30 02:48:53;;;;;;;14.03;10.60;;;5.20;91.80;;;;;;5103965;28;20925;-81
2020/12/30 02:51:19;;;;;;;13.40;11.33;;;5.30;91.90;;;;;;5103739;28;20450;-80
2020/12/30 02:53:45;;;;;;;23.90;11.57;;;5.20;91.80;;;;;;5103777;28;20451;-80
2020/12/30 02:56:11;;;;;;;14.40;11.80;;;5.30;91.90;;;;;;5103495;28;20444;-80
2020/12/30 02:58:40;;;;;;;14.73;10.83;;;5.20;91.90;;;;;;5104255;28;20440;-80
2020/12/30 03:01:09;;;;;;;16.27;12.50;;;5.20;91.90;;;;;;5103136;28;20456;-80
2020/12/30 03:03:36;;;;;;;13.30;10.30;;;5.20;91.90;;;;;;5103998;28;20957;-80
2020/12/30 03:06:02;;;;;;;13.90;10.50;;;5.20;91.90;;;;;;5104883;28;20486;-81
2020/12/30 03:08:28;;;;;;;14.00;10.27;;;5.20;91.90;;;;;;5102917;28;20447;-80
2020/12/30 03:10:55;;;;;;;20.70;11.53;;;5.20;91.90;;;;;;5103636;28;20447;-81
2020/12/30 03:13:21;;;;;;;19.73;11.23;;;5.10;91.90;;;;;;5107243;28;20964;-81
2020/12/30 03:15:49;;;;;;;13.70;10.40;;;5.20;91.90;;;;;;5107400;28;20501;-81
2020/12/30 03:18:15;;;;;;;17.30;11.87;;;5.10;92.00;;;;;;5107646;28;20984;-81
2020/12/30 03:20:41;;;;;;;19.00;11.20;;;5.10;92.00;;;;;;5108112;28;20451;-80
2020/12/30 03:23:08;;;;;;;15.50;12.27;;;5.00;91.90;;;;;;5107432;28;20454;-81
2020/12/30 03:25:34;;;;;;;12.53;10.90;;;5.00;91.90;;;;;;5107479;28;20843;-81
2020/12/30 03:28:01;;;;;;;14.70;10.63;;;5.00;91.90;;;;;;5107975;28;20552;-81
2020/12/30 03:30:27;;;;;;;17.67;11.53;;;4.90;91.90;;;;;;5107340;28;20448;-81
2020/12/30 03:32:55;;;;;;;15.43;10.77;;;4.90;92.00;;;;;;5107727;28;20519;-80
2020/12/30 03:35:24;;;;;;;19.27;11.77;;;4.80;91.90;;;;;;5107341;28;20447;-81
2020/12/30 03:37:51;;;;;;;16.97;11.80;;;4.80;92.00;;;;;;5106284;28;20472;-81
2020/12/30 03:40:17;;;;;;;13.13;10.20;;;4.80;92.00;;;;;;5107850;28;20454;-81
2020/12/30 03:42:43;;;;;;;14.40;10.30;;;4.80;92.10;;;;;;5108481;28;20447;-80
2020/12/30 03:45:10;;;;;;;12.83;10.83;;;4.80;92.10;;;;;;5107341;28;20497;-80
2020/12/30 03:47:36;;;;;;;13.10;10.90;;;4.80;92.00;;;;;;5100435;28;20969;-80
2020/12/30 03:50:04;;;;;;;13.80;11.30;;;4.80;92.00;;;;;;5099438;28;20432;-81
2020/12/30 03:52:30;;;;;;;13.23;10.30;;;4.80;91.80;;;;;;5099609;28;20452;-81
2020/12/30 03:54:56;;;;;;;12.07;10.10;;;4.70;91.70;;;;;;5098720;28;20440;-81
2020/12/30 03:57:23;;;;;;;13.60;9.90;;;4.70;91.60;;;;;;5098916;28;20471;-80
2020/12/30 03:59:49;;;;;;;15.50;11.47;;;4.70;91.50;;;;;;5098978;28;20942;-81
2020/12/30 04:02:15;;;;;;;13.37;10.07;;;4.70;91.50;;;;;;5099051;28;20447;-81
2020/12/30 04:04:41;;;;;;;14.10;10.50;;;4.70;91.60;;;;;;5098370;28;20489;-81
2020/12/30 04:07:08;;;;;;;13.63;10.13;;;4.70;91.70;;;;;;5098639;28;20460;-81
2020/12/30 04:09:34;;;;;;;12.10;9.90;;;4.70;91.90;;;;;;5098851;28;20493;-81
2020/12/30 04:12:01;;;;;;;14.77;11.00;;;4.70;91.80;;;;;;5098229;28;20452;-80
2020/12/30 04:14:27;;;;;;;14.80;10.80;;;4.70;91.90;;;;;;5098077;28;20996;-81
2020/12/30 04:16:55;;;;;;;15.33;10.17;;;4.70;92.00;;;;;;5097673;28;20463;-81
2020/12/30 04:19:21;;;;;;;14.93;10.47;;;4.70;92.00;;;;;;5097045;28;20446;-80
2020/12/30 04:21:47;;;;;;;12.37;10.27;;;4.70;92.10;;;;;;5096860;28;20458;-80
2020/12/30 04:24:14;;;;;;;14.27;11.10;;;4.70;92.00;;;;;;5096497;28;20805;-80
2020/12/30 04:26:40;;;;;;;17.17;12.20;;;4.70;92.00;;;;;;5096019;28;20488;-80
2020/12/30 04:29:07;;;;;;;15.33;10.47;;;4.70;92.10;;;;;;5096238;28;20469;-80
2020/12/30 04:31:35;;;;;;;18.17;11.40;;;4.70;92.10;;;;;;5096254;28;20450;-80
2020/12/30 04:34:01;;;;;;;14.53;10.37;;;4.70;92.20;;;;;;5096417;28;20450;-80
2020/12/30 04:36:28;;;;;;;15.70;11.67;;;4.60;92.10;;;;;;5096375;28;20486;-80
2020/12/30 04:38:54;;;;;;;12.27;10.87;;;4.60;92.10;;;;;;5096202;28;20447;-80
2020/12/30 04:41:28;;;;;;;15.97;11.60;;;4.60;92.10;;;;;;5096129;28;20805;-80
2020/12/30 04:43:55;;;;;;;13.93;10.53;;;4.60;92.20;;;;;;5096069;28;20428;-80
2020/12/30 04:46:23;;;;;;;15.07;11.87;;;4.60;92.20;;;;;;5096055;28;20487;-80
2020/12/30 04:48:50;;;;;;;13.30;10.97;;;4.60;92.30;;;;;;5096262;28;20459;-80
2020/12/30 04:51:17;;;;;;;10.27;9.13;;;4.60;92.40;;;;;;5095962;28;20953;-80
2020/12/30 04:53:45;;;;;;;14.27;11.13;;;4.60;92.40;;;;;;5095568;28;20975;-80
2020/12/30 04:56:15;;;;;;;15.00;11.57;;;4.60;92.40;;;;;;5095599;28;20444;-80
2020/12/30 04:58:43;;;;;;;12.73;11.10;;;4.60;92.40;;;;;;5095819;28;20435;-80
2020/12/30 05:01:17;;;;;;;18.70;11.87;;;4.60;92.40;;;;;;5095936;28;20444;-80
2020/12/30 05:03:46;;;;;;;16.10;10.90;;;4.60;92.40;;;;;;5095127;28;20529;-80
2020/12/30 05:06:15;;;;;;;12.80;9.77;;;4.70;92.50;;;;;;5095668;28;20556;-80
2020/12/30 05:08:41;;;;;;;14.57;11.00;;;4.60;92.40;;;;;;5095476;28;20494;-80
2020/12/30 05:11:07;;;;;;;14.43;11.33;;;4.60;92.40;;;;;;5096435;28;20444;-80
2020/12/30 05:13:34;;;;;;;15.70;11.30;;;4.60;92.40;;;;;;5096662;28;20946;-80
2020/12/30 05:16:01;;;;;;;14.23;10.20;;;4.60;92.30;;;;;;5095971;28;20800;-80
2020/12/30 05:18:28;;;;;;;19.13;11.77;;;4.60;92.40;;;;;;5095432;28;20428;-80
2020/12/30 05:20:54;;;;;;;15.70;11.77;;;4.60;92.40;;;;;;5095628;28;20443;-80
2020/12/30 05:23:20;;;;;;;14.90;11.13;;;4.50;92.40;;;;;;5095570;28;20455;-80
2020/12/30 05:25:46;;;;;;;16.27;12.50;;;4.50;92.40;;;;;;5095468;28;20835;-80
2020/12/30 05:28:14;;;;;;;18.47;13.50;;;4.50;92.50;;;;;;5095003;28;20460;-80
2020/12/30 05:30:41;;;;;;;15.53;11.17;;;4.50;92.60;;;;;;5095566;28;20471;-80
2020/12/30 05:33:08;;;;;;;17.67;12.77;;;4.50;92.60;;;;;;5095192;28;20432;-81
2020/12/30 05:35:35;;;;;;;13.90;11.30;;;4.50;92.70;;;;;;5094829;28;20492;-80
2020/12/30 05:38:02;;;;;;;21.23;12.87;;;4.50;92.80;;;;;;5094939;28;20475;-80
2020/12/30 05:40:30;;;;;;;17.50;13.40;;;4.40;92.80;;;;;;5094967;28;20435;-80
2020/12/30 05:43:09;;;;;;;16.10;12.60;;;4.40;92.80;;;;;;5095113;28;20451;-80
2020/12/30 05:45:44;;;;;;;18.90;13.07;;;4.40;93.20;;;;;;5094820;28;20472;-80
2020/12/30 05:48:12;;;;;;;19.50;12.50;;;4.40;92.90;;;;;;5095222;28;20470;-80
2020/12/30 05:50:47;;;;;;;20.67;13.90;;;4.50;92.90;;;;;;5094914;28;20444;-80
2020/12/30 05:53:14;;;;;;;17.87;12.67;;;4.50;92.90;;;;;;5094935;28;20872;-80
2020/12/30 05:55:40;;;;;;;20.73;12.90;;;4.50;92.90;;;;;;5095181;28;20444;-80
2020/12/30 05:58:12;;;;;;;20.70;13.73;;;4.50;92.90;;;;;;5094958;28;20796;-80
2020/12/30 06:00:38;;;;;;;19.63;13.50;;;4.50;92.90;;;;;;5094884;28;20404;-80
2020/12/30 06:03:04;;;;;;;19.07;13.20;;;4.50;92.90;;;;;;5094674;28;20455;-80
2020/12/30 06:05:31;;;;;;;19.07;12.73;;;4.50;92.70;;;;;;5094834;28;20475;-80
2020/12/30 06:07:58;;;;;;;21.50;13.17;;;4.50;92.50;;;;;;5094331;28;20448;-80
2020/12/30 06:10:28;;;;;;;21.43;13.87;;;4.40;92.40;;;;;;5095160;28;20432;-80
2020/12/30 06:12:58;;;;;;;17.93;11.77;;;4.40;92.50;;;;;;5094538;28;20436;-80
2020/12/30 06:15:25;;;;;;;23.27;13.10;;;4.40;92.60;;;;;;5094960;28;20490;-80
2020/12/30 06:17:57;;;;;;;17.87;13.13;;;4.40;92.60;;;;;;5094465;28;20468;-80
2020/12/30 06:20:25;;;;;;;18.77;12.77;;;4.30;92.50;;;;;;5094597;28;20454;-80
2020/12/30 06:22:58;;;;;;;22.27;14.50;;;4.30;92.60;;;;;;5094710;28;20432;-80
2020/12/30 06:25:25;;;;;;;23.20;15.73;;;4.30;92.60;;;;;;5094712;28;20464;-80
2020/12/30 06:27:53;;;;;;;20.47;13.80;;;4.30;92.70;;;;;;5094105;28;21027;-80
2020/12/30 06:30:19;;;;;;;16.90;13.60;;;4.30;92.70;;;;;;5094768;28;20452;-81
2020/12/30 06:32:46;;;;;;;21.43;15.30;;;4.30;92.80;;;;;;5094276;28;20447;-81
2020/12/30 06:35:13;;;;;;;21.13;14.17;;;4.30;92.80;;;;;;5094344;28;20439;-81
2020/12/30 06:37:41;;;;;;;24.20;14.60;;;4.30;92.90;;;;;;5094040;28;20471;-81
2020/12/30 06:40:36;;;;;;;22.23;15.00;;;4.30;92.90;;;;;;5097233;28;20949;-81
2020/12/30 06:43:03;;;;;;;17.93;13.03;;;4.30;92.90;;;;;;5103224;28;20800;-81
2020/12/30 06:45:51;;;;;;;24.20;14.00;;;4.30;92.90;;;;;;5104614;28;20502;-82
2020/12/30 06:48:20;;;;;;;21.30;14.73;;;4.30;93.00;;;;;;5110932;28;20480;-82
2020/12/30 06:50:47;;;;;;;23.67;14.67;;;4.30;92.90;;;;;;5110451;28;20811;-81
2020/12/30 06:53:30;;;;;;;25.57;15.10;;;4.30;92.90;;;;;;5109713;28;20813;-81
2020/12/30 06:55:59;;;;;;;21.93;14.37;;;4.30;93.00;;;;;;5108867;28;20447;-82
2020/12/30 06:58:44;;;;;;;23.50;14.50;;;4.40;93.10;;;;;;5108061;28;20634;-81
2020/12/30 07:01:11;;;;;;;21.47;13.67;;;4.30;93.10;;;;;;5107412;28;20420;-82
2020/12/30 07:03:37;;;;;;;23.87;15.23;;;4.30;93.10;;;;;;5107187;28;20451;-82
2020/12/30 07:06:32;;;;;;;23.27;15.40;;;4.30;93.20;;;;;;5105443;28;20479;-81
2020/12/30 07:09:00;;;;;;;20.10;14.23;;;4.30;93.20;;;;;;5104978;28;20448;-81
2020/12/30 07:11:58;;;;;;;20.10;14.50;;;4.40;93.20;;;;;;5104828;28;20444;-81
2020/12/30 07:14:25;;;;;;;21.77;15.43;;;4.40;93.10;;;;;;5105503;28;20424;-81
2020/12/30 07:16:54;;;;;;;27.80;14.40;;;4.40;93.00;;;;;;5104419;28;20451;-81
2020/12/30 07:19:22;;;;;;;20.37;14.67;;;4.40;92.90;;;;;;5103672;28;20454;-81
2020/12/30 07:21:58;;;;;;;22.47;14.83;;;4.40;92.70;;;;;;5103795;28;20452;-82
2020/12/30 07:24:26;;;;;;;30.17;15.30;;;4.30;92.60;;;;;;5102123;28;20906;-81
2020/12/30 07:26:58;;;;;;;25.63;16.07;;;4.40;92.70;;;;;;5103335;28;20476;-81
2020/12/30 07:29:25;;;;;;;21.20;14.87;;;4.40;92.70;;;;;;5102527;28;20440;-82
2020/12/30 07:31:53;;;;;;;28.30;16.20;;;4.40;92.80;;;;;;5101967;28;20455;-82
2020/12/30 07:34:22;;;;;;;25.00;15.57;;;4.40;92.80;;;;;;5102155;28;20452;-81
2020/12/30 07:36:49;;;;;;;23.73;13.60;;;4.40;92.80;;;;;;5101893;28;20521;-81
2020/12/30 07:39:23;;;;;;;21.90;14.50;;;4.30;92.90;;;;;;5100602;28;20443;-81
2020/12/30 07:41:49;;;;;;;25.83;16.57;;;4.40;93.00;;;;;;5100157;28;20454;-81
2020/12/30 07:44:16;;;;;;;25.80;16.00;;;4.40;93.00;;;;;;5099359;28;20903;-81
2020/12/30 07:46:43;;;;;;;25.03;15.80;;;4.40;92.90;;;;;;5100502;28;20847;-81
2020/12/30 07:49:11;;;;;;;25.27;16.10;;;4.40;93.00;;;;;;5099635;28;20902;-81
2020/12/30 07:51:47;;;;;;;27.33;16.97;;;4.50;93.00;;;;;;5097706;28;20946;-81
2020/12/30 07:54:14;;;;;;;33.20;18.90;;;4.50;93.10;;;;;;5098387;28;20424;-81
2020/12/30 07:56:40;;;;;;;24.17;17.40;;;4.40;93.00;;;;;;5098245;28;20499;-81
2020/12/30 07:59:06;;;;;;;27.47;18.43;;;4.50;93.10;;;;;;5104259;28;20443;-81
2020/12/30 08:01:34;;;;;;;26.90;17.30;;;4.50;93.10;;;;;;5113321;28;20440;-81
2020/12/30 08:04:06;;;;;;;25.37;17.00;;;4.60;93.20;;;;;;5108322;28;20452;-81
2020/12/30 08:06:42;;;;;;;27.60;17.60;;;4.60;93.10;;;;;;5106146;28;20484;-81
2020/12/30 08:09:09;;;;;;;26.33;15.60;;;4.60;93.10;;;;;;5104272;28;20469;-82
2020/12/30 08:11:35;;;;;;;27.43;15.80;;;4.70;93.10;;;;;;5103405;28;20460;-82
2020/12/30 08:14:07;;;;;;;28.60;15.70;;;4.70;93.20;;;;;;5101054;28;20450;-82
2020/12/30 08:16:35;;;;;;;30.57;18.53;;;4.80;93.30;;;;;;5098464;28;20464;-82
2020/12/30 08:19:01;;;;;;;30.87;18.20;;;4.90;93.30;;;;;;5099205;28;20448;-81
2020/12/30 08:21:27;;;;;;;24.87;16.90;;;4.90;93.20;;;;;;5099940;28;20436;-83
2020/12/30 08:24:06;;;;;;;21.80;16.63;;;5.00;93.50;;;;;;5098135;28;20455;-82
2020/12/30 08:26:35;;;;;;;30.47;16.33;;;5.00;93.00;;;;;;5098398;28;20519;-83
2020/12/30 08:29:02;;;;;;;26.90;18.67;;;5.10;92.80;;;;;;5096517;28;20541;-83
2020/12/30 08:31:43;;;;;;;27.63;17.23;;;5.10;92.80;;;;;;5096535;28;21002;-82
2020/12/30 08:34:15;;;;;;;27.57;17.93;;;5.10;92.90;;;;;;5096881;28;20423;-83
2020/12/30 08:36:46;;;;;;;30.37;17.40;;;5.10;92.80;;;;;;5096918;28;20464;-82
2020/12/30 08:39:17;;;;;;;32.37;17.90;;;5.20;92.90;;;;;;5096929;28;20424;-83
2020/12/30 08:41:49;;;;;;;23.33;17.43;;;5.20;92.80;;;;;;5097347;28;20773;-83
2020/12/30 08:44:19;;;;;;;25.00;16.37;;;5.20;92.80;;;;;;5096335;28;20468;-83
2020/12/30 08:46:48;;;;;;;29.37;17.77;;;5.30;92.90;;;;;;5096002;28;20479;-85
2020/12/30 08:49:18;;;;;;;24.60;17.80;;;5.30;93.00;;;;;;5096629;28;20435;-83
2020/12/30 08:51:44;;;;;;;27.97;17.87;;;5.40;92.90;;;;;;5096833;28;20994;-81
2020/12/30 08:54:14;;;;;;;30.50;17.93;;;5.40;92.90;;;;;;5096622;28;20432;-81
2020/12/30 08:56:42;;;;;;;34.60;19.33;;;5.50;92.80;;;;;;5095255;28;20992;-83
2020/12/30 08:59:08;;;;;;;28.20;18.27;;;5.50;92.80;;;;;;5095419;28;20933;-83
2020/12/30 09:01:34;;;;;;;28.03;17.77;;;5.40;92.90;;;;;;5095344;28;20439;-83
2020/12/30 09:04:10;;;;;;;27.93;18.40;;;5.40;93.20;;;;;;5095201;28;20976;-83
2020/12/30 09:06:38;;;;;;;25.37;19.03;;;5.40;93.20;;;;;;5095335;28;20483;-82
2020/12/30 09:09:10;;;;;;;24.87;17.87;;;5.40;93.30;;;;;;5094397;28;20452;-83
2020/12/30 09:11:37;;;;;;;25.67;19.60;;;5.40;93.40;;;;;;5095293;28;20478;-82
2020/12/30 09:14:17;;;;;;;25.10;17.53;;;5.40;93.50;;;;;;5095347;28;20979;-82
2020/12/30 09:16:54;;;;;;;28.43;17.43;;;5.40;93.60;;;;;;5095233;28;20456;-83
2020/12/30 09:19:20;;;;;;;28.00;19.67;;;5.50;93.60;;;;;;5094973;28;20800;-82
2020/12/30 09:21:47;;;;;;;23.20;15.80;;;5.50;93.60;;;;;;5095418;28;20444;-82
2020/12/30 09:24:13;;;;;;;28.33;17.67;;;5.60;93.50;;;;;;5096511;28;20451;-83
2020/12/30 09:26:40;;;;;;;26.60;17.90;;;5.70;93.50;;;;;;5095836;28;20509;-82
2020/12/30 09:29:17;;;;;;;25.33;17.77;;;5.80;93.40;;;;;;5096311;28;20447;-82
2020/12/30 09:31:51;;;;;;;22.37;16.87;;;5.90;93.40;;;;;;5095583;28;20921;-82
2020/12/30 09:34:18;;;;;;;24.47;16.40;;;5.90;93.00;;;;;;5095960;28;20450;-82
2020/12/30 09:36:53;;;;;;;25.23;17.23;;;5.90;92.90;;;;;;5096209;28;20462;-82
2020/12/30 09:39:20;;;;;;;27.83;15.80;;;5.90;92.70;;;;;;5096791;28;20416;-83
2020/12/30 09:41:46;;;;;;;24.30;16.67;;;6.00;92.80;;;;;;5098479;28;20945;-82
2020/12/30 09:44:12;;;;;;;25.50;17.00;;;6.00;92.60;;;;;;5098653;28;20443;-82
2020/12/30 09:46:48;;;;;;;27.43;17.90;;;6.10;92.40;;;;;;5101011;28;20556;-82
2020/12/30 09:49:15;;;;;;;22.80;17.00;;;6.10;92.40;;;;;;5099006;28;20822;-81
2020/12/30 09:51:41;;;;;;;28.23;18.17;;;6.10;92.20;;;;;;5098495;28;20436;-82
2020/12/30 09:54:08;;;;;;;22.10;14.90;;;6.20;92.10;;;;;;5099239;28;20819;-82
2020/12/30 09:56:34;;;;;;;24.67;15.67;;;6.30;92.00;;;;;;5099283;28;20463;-82
2020/12/30 09:59:02;;;;;;;25.77;17.50;;;6.40;92.00;;;;;;5098935;28;20432;-82
2020/12/30 10:01:30;;;;;;;26.80;17.30;;;6.40;91.80;;;;;;5099140;28;20921;-81
2020/12/30 10:03:56;;;;;;;26.40;15.63;;;6.40;91.70;;;;;;5098843;28;20468;-81
2020/12/30 10:06:23;;;;;;;27.73;16.80;;;6.50;91.70;;;;;;5096903;28;20488;-82
2020/12/30 10:08:49;;;;;;;21.70;15.43;;;6.50;91.50;;;;;;5096268;28;20783;-82
2020/12/30 10:11:18;;;;;;;23.73;15.67;;;6.60;91.40;;;;;;5095829;28;20436;-82
2020/12/30 10:13:45;;;;;;;20.07;16.57;;;6.60;91.40;;;;;;5096112;28;20447;-82
2020/12/30 10:16:11;;;;;;;19.50;14.27;;;6.60;91.30;;;;;;5094784;28;20447;-82
2020/12/30 10:18:37;;;;;;;22.03;16.33;;;6.60;91.20;;;;;;5095726;28;20441;-81
2020/12/30 10:21:03;;;;;;;20.97;15.23;;;6.50;91.00;;;;;;5098017;28;20504;-82
2020/12/30 10:23:29;;;;;;;18.33;13.40;;;6.50;91.20;;;;;;5099986;28;20840;-82
2020/12/30 10:25:56;;;;;;;20.33;14.20;;;6.50;91.10;;;;;;5100031;28;20502;-82
2020/12/30 10:28:23;;;;;;;21.93;14.40;;;6.50;91.00;;;;;;5099795;28;20508;-82
2020/12/30 10:30:49;;;;;;;21.40;13.73;;;6.50;91.00;;;;;;5099937;28;20450;-81
2020/12/30 10:33:15;;;;;;;16.30;12.80;;;6.50;91.00;;;;;;5099756;28;20436;-81
2020/12/30 10:35:41;;;;;;;18.90;13.63;;;6.50;91.10;;;;;;5099719;28;20447;-82
2020/12/30 10:38:07;;;;;;;19.47;14.87;;;6.60;91.30;;;;;;5099636;28;20450;-82
2020/12/30 10:40:34;;;;;;;23.87;13.87;;;6.70;91.00;;;;;;5100304;28;20485;-82
2020/12/30 10:43:03;;;;;;;17.77;13.10;;;6.70;91.10;;;;;;5099104;28;20929;-81
2020/12/30 10:45:30;;;;;;;16.90;12.77;;;6.70;90.70;;;;;;5099544;28;20509;-81
2020/12/30 10:47:57;;;;;;;19.67;13.17;;;6.70;90.50;;;;;;5099782;28;20471;-81
2020/12/30 10:50:23;;;;;;;21.10;13.67;;;6.60;90.60;;;;;;5099409;28;20802;-82
2020/12/30 10:52:49;;;;;;;22.57;13.97;;;6.60;90.90;;;;;;5099285;28;20463;-81
2020/12/30 10:55:17;;;;;;;20.97;13.93;;;6.50;91.10;;;;;;5107163;28;20447;-83
2020/12/30 10:57:43;;;;;;;17.20;13.00;;;6.50;91.10;;;;;;5105678;28;20464;-82
2020/12/30 11:00:10;;;;;;;17.37;11.80;;;6.60;91.20;;;;;;5104549;28;20436;-82
2020/12/30 11:02:37;;;;;;;22.07;13.90;;;6.70;91.10;;;;;;5104540;28;20501;-82
2020/12/30 11:05:03;;;;;;;18.50;12.47;;;6.80;91.20;;;;;;5103465;28;20516;-82
2020/12/30 11:07:29;;;;;;;17.27;12.93;;;6.90;90.90;;;;;;5103186;28;20483;-82
2020/12/30 11:09:55;;;;;;;20.87;12.10;;;7.00;90.40;;;;;;5103098;28;20432;-82
2020/12/30 11:12:21;;;;;;;19.67;12.80;;;7.20;90.20;;;;;;5102260;28;20439;-82
2020/12/30 11:14:48;;;;;;;17.80;12.27;;;7.30;90.00;;;;;;5101637;28;20427;-82
2020/12/30 11:17:14;;;;;;;22.30;12.60;;;7.30;89.40;;;;;;5101614;28;20464;-82
2020/12/30 11:19:41;;;;;;;14.93;11.80;;;7.40;88.60;;;;;;5101802;28;20448;-81
2020/12/30 11:22:07;;;;;;;18.27;11.73;;;7.30;88.90;;;;;;5100739;28;20443;-82
2020/12/30 11:24:34;;;;;;;19.50;12.40;;;7.20;89.10;;;;;;5101249;28;20487;-82
2020/12/30 11:27:00;;;;;;;18.50;13.50;;;7.20;89.80;;;;;;5100200;28;20475;-82
2020/12/30 11:29:26;;;;;;;25.13;14.17;;;7.20;90.00;;;;;;5101097;28;20455;-80
2020/12/30 11:31:52;;;;;;;17.90;13.20;;;7.10;91.20;;;;;;5099469;28;20458;-81
2020/12/30 11:34:18;;;;;;;21.97;13.93;;;7.10;90.90;;;;;;5100282;28;20438;-83
2020/12/30 11:36:46;;;;;;;18.30;13.43;;;7.10;90.10;;;;;;5100045;28;20488;-79
2020/12/30 11:39:12;;;;;;;22.53;14.57;;;6.90;90.00;;;;;;5099697;28;20504;-82
2020/12/30 11:41:38;;;;;;;18.87;13.63;;;6.80;90.30;;;;;;5100129;28;20432;-83
2020/12/30 11:44:05;;;;;;;21.97;13.27;;;6.70;90.70;;;;;;5099068;28;20405;-83
2020/12/30 11:46:31;;;;;;;22.97;13.97;;;6.80;90.80;;;;;;5099928;28;20491;-81
2020/12/30 11:48:58;;;;;;;23.20;14.67;;;6.70;90.80;;;;;;5099957;28;20938;-83
2020/12/30 11:51:24;;;;;;;21.07;14.80;;;6.70;90.70;;;;;;5099270;28;20447;-81
2020/12/30 11:53:51;;;;;;;23.50;15.13;;;6.80;90.80;;;;;;5098857;28;20452;-81
2020/12/30 11:56:21;;;;;;;21.17;15.87;;;6.80;91.20;;;;;;5098287;28;20792;-81
2020/12/30 11:58:47;;;;;;;20.47;14.77;;;6.90;91.00;;;;;;5099024;28;20428;-81
2020/12/30 12:01:14;;;;;;;20.27;14.90;;;6.80;91.00;;;;;;5098219;28;20532;-82
2020/12/30 12:03:40;;;;;;;20.10;15.67;;;6.80;91.10;;;;;;5097686;28;20463;-83
2020/12/30 12:06:07;;;;;;;23.17;15.40;;;6.80;91.00;;;;;;5097689;28;20491;-84
2020/12/30 12:08:33;;;;;;;20.30;15.83;;;6.80;90.80;;;;;;5097862;28;20428;-79
2020/12/30 12:11:00;;;;;;;22.57;16.70;;;6.80;90.80;;;;;;5098323;28;20481;-82
2020/12/30 12:13:26;;;;;;;17.83;14.30;;;6.80;90.70;;;;;;5099140;28;20433;-81
2020/12/30 12:15:54;;;;;;;21.13;14.67;;;6.70;90.70;;;;;;5098813;28;20447;-79
2020/12/30 12:18:20;;;;;;;21.60;16.03;;;6.80;91.00;;;;;;5098575;28;20467;-80
2020/12/30 12:20:46;;;;;;;21.40;16.80;;;6.70;91.00;;;;;;5096744;28;20970;-81
2020/12/30 12:23:13;;;;;;;24.13;16.97;;;6.70;91.00;;;;;;5103983;28;20421;-86
2020/12/30 12:25:42;;;;;;;20.10;14.73;;;6.60;91.30;;;;;;5100732;28;20460;-82
2020/12/30 12:28:09;;;;;;;20.20;14.87;;;6.60;91.60;;;;;;5100535;28;20801;-82
2020/12/30 12:30:35;;;;;;;22.80;15.23;;;6.50;92.00;;;;;;5099487;28;20803;-80
2020/12/30 12:33:01;;;;;;;26.50;16.13;;;6.50;92.30;;;;;;5100687;28;20443;-81
2020/12/30 12:35:27;;;;;;;20.47;14.30;;;6.50;92.20;;;;;;5099116;28;21002;-79
2020/12/30 12:38:05;;;;;;;20.03;15.23;;;6.50;92.10;;;;;;5099531;28;20939;-79
2020/12/30 12:40:32;;;;;;;21.00;14.20;;;6.40;92.00;;;;;;5099488;28;20799;-79
2020/12/30 12:42:58;;;;;;;23.27;16.07;;;6.40;92.00;;;;;;5100224;28;20440;-79